Time;durP1;ratioP1;P1;durP2;ratioP2;P2;SDS_P1;SDS_P2;PMS_P1;PMS_P2;Temp;Humidity;BMP_temperature;BMP_pressure;BME280_temperature;BME280_humidity;BME280_pressure;Samples;Min_cycle;Max_cycle;Signal;HPM_P1;HPM_P2
2022/03/22 00:00:15;;;;;;;42.40;23.88;;;;;;;7.81;89.22;103135.59;5030526;28;20040;-70
2022/03/22 00:02:41;;;;;;;49.05;25.58;;;;;;;7.79;89.69;103134.59;5029601;28;20017;-70
2022/03/22 00:05:06;;;;;;;43.40;24.48;;;;;;;7.82;89.68;103136.53;5041898;28;20026;-71
2022/03/22 00:07:33;;;;;;;42.65;23.65;;;;;;;7.80;89.46;103144.28;5031760;28;20037;-70
2022/03/22 00:09:58;;;;;;;44.53;23.70;;;;;;;7.83;89.49;103139.22;5034066;28;20021;-70
2022/03/22 00:12:24;;;;;;;39.72;24.48;;;;;;;7.74;89.49;103139.53;5036378;28;20022;-70
2022/03/22 00:14:50;;;;;;;44.10;24.25;;;;;;;7.71;90.88;103136.72;5035742;28;20018;-69
2022/03/22 00:17:15;;;;;;;43.20;25.00;;;;;;;7.68;90.56;103131.28;5035680;28;20128;-70
2022/03/22 00:19:41;;;;;;;45.63;24.88;;;;;;;7.64;90.71;103129.28;5034077;28;20033;-69
2022/03/22 00:22:06;;;;;;;39.15;23.65;;;;;;;7.61;91.10;103126.47;5034849;28;20044;-71
2022/03/22 00:24:31;;;;;;;44.58;25.70;;;;;;;7.66;91.46;103125.03;5035911;28;20049;-70
2022/03/22 00:26:56;;;;;;;49.72;25.80;;;;;;;7.59;92.09;103133.28;5035748;28;20037;-70
2022/03/22 00:29:22;;;;;;;45.30;25.77;;;;;;;7.57;92.11;103132.31;5035490;28;20428;-70
2022/03/22 00:31:48;;;;;;;46.13;25.52;;;;;;;7.64;92.92;103137.13;5035752;28;20359;-70
2022/03/22 00:34:13;;;;;;;48.67;26.80;;;;;;;7.79;92.62;103136.34;5031181;28;21332;-70
2022/03/22 00:36:43;;;;;;;46.05;26.05;;;;;;;7.73;91.56;103148.22;5034595;28;20029;-71
2022/03/22 00:39:09;;;;;;;49.72;27.17;;;;;;;7.65;91.74;103144.19;5033899;28;20877;-70
2022/03/22 00:41:34;;;;;;;48.00;26.42;;;;;;;7.63;92.72;103145.78;5036015;28;20029;-70
2022/03/22 00:43:59;;;;;;;46.67;26.65;;;;;;;7.55;92.65;103137.41;5035728;28;20041;-69
2022/03/22 00:46:25;;;;;;;47.35;26.20;;;;;;;7.51;92.97;103144.97;5035064;28;20021;-68
2022/03/22 00:48:50;;;;;;;47.00;27.45;;;;;;;7.47;93.01;103135.09;5035814;28;20021;-69
2022/03/22 00:51:16;;;;;;;48.13;25.92;;;;;;;7.45;93.41;103141.94;5035714;28;20041;-70
2022/03/22 00:53:41;;;;;;;52.80;26.13;;;;;;;7.42;93.65;103140.94;5033725;28;20493;-69
2022/03/22 00:56:08;;;;;;;48.67;26.27;;;;;;;7.41;93.61;103138.22;5030755;28;20473;-70
2022/03/22 00:58:34;;;;;;;46.42;25.80;;;;;;;7.40;94.36;103139.03;5034723;28;20363;-70
2022/03/22 01:01:00;;;;;;;47.80;27.20;;;;;;;7.35;94.14;103143.97;5034498;28;20035;-70
2022/03/22 01:03:27;;;;;;;48.15;27.05;;;;;;;7.31;94.14;103139.34;5033631;28;20025;-70
2022/03/22 01:05:52;;;;;;;52.55;27.13;;;;;;;7.35;94.22;103138.75;5035081;28;20040;-70
2022/03/22 01:08:18;;;;;;;48.35;26.92;;;;;;;7.30;94.13;103137.50;5035320;28;20373;-70
2022/03/22 01:10:51;;;;;;;49.92;26.63;;;;;;;7.28;93.85;103140.84;5034158;28;20060;-70
2022/03/22 01:13:18;;;;;;;53.03;26.65;;;;;;;7.26;93.97;103141.63;5034996;28;20037;-70
2022/03/22 01:15:43;;;;;;;47.80;26.95;;;;;;;7.29;94.69;103143.56;5035260;28;20029;-70
2022/03/22 01:18:10;;;;;;;51.25;27.38;;;;;;;7.23;94.99;103132.66;5035233;28;20037;-70
2022/03/22 01:20:41;;;;;;;52.80;28.30;;;;;;;7.22;94.93;103136.09;5034561;28;20086;-69
2022/03/22 01:23:08;;;;;;;50.42;27.33;;;;;;;7.21;95.21;103135.16;5033994;28;20469;-70
2022/03/22 01:25:37;;;;;;;45.45;26.30;;;;;;;7.16;95.19;103133.06;5034032;28;20033;-69
2022/03/22 01:28:05;;;;;;;56.10;30.23;;;;;;;7.11;95.79;103135.38;5028867;28;20076;-70
2022/03/22 01:30:31;;;;;;;47.72;26.02;;;;;;;7.13;96.30;103132.84;5033913;28;20092;-70
2022/03/22 01:32:57;;;;;;;51.35;27.38;;;;;;;7.05;96.35;103134.94;5034853;28;20029;-70
2022/03/22 01:35:23;;;;;;;49.22;28.20;;;;;;;6.91;96.45;103134.00;5034340;28;20044;-70
2022/03/22 01:37:49;;;;;;;46.92;28.10;;;;;;;6.84;96.76;103132.69;5033543;28;20083;-70
2022/03/22 01:40:18;;;;;;;48.50;27.40;;;;;;;6.83;97.53;103128.22;5034417;28;20033;-69
2022/03/22 01:42:43;;;;;;;49.00;28.15;;;;;;;6.84;97.98;103127.44;5033661;28;20033;-69
2022/03/22 01:45:10;;;;;;;48.95;27.40;;;;;;;6.85;97.85;103123.09;5034280;28;20083;-68
2022/03/22 01:47:37;;;;;;;50.85;29.65;;;;;;;6.84;97.62;103123.94;5033303;28;20025;-70
2022/03/22 01:50:05;;;;;;;49.22;27.58;;;;;;;6.83;97.84;103128.22;5034686;28;20061;-69
2022/03/22 01:52:34;;;;;;;54.05;28.65;;;;;;;6.82;98.20;103120.28;5034586;28;20131;-70
2022/03/22 01:55:00;;;;;;;53.53;28.08;;;;;;;6.80;97.85;103121.91;5034660;28;20033;-70
2022/03/22 01:57:26;;;;;;;51.20;27.33;;;;;;;6.77;98.13;103119.06;5034397;28;20083;-70
2022/03/22 01:59:52;;;;;;;56.72;29.30;;;;;;;6.77;98.42;103119.06;5034483;28;20029;-70
2022/03/22 02:07:48;;;;;;;53.42;28.75;;;;;;;6.75;98.31;103113.72;5029218;28;20047;-70
2022/03/22 02:10:14;;;;;;;53.17;28.33;;;;;;;6.76;98.63;103107.69;5032351;28;20033;-70
2022/03/22 02:12:40;;;;;;;57.15;29.85;;;;;;;6.74;99.14;103110.22;5030989;28;20029;-70
2022/03/22 02:15:07;;;;;;;52.83;28.60;;;;;;;6.75;99.74;103106.78;5032358;28;20030;-70
2022/03/22 02:17:34;;;;;;;50.50;27.80;;;;;;;6.72;99.71;103105.66;5030589;28;20401;-70
2022/03/22 02:20:00;;;;;;;53.35;28.38;;;;;;;6.81;100.00;103108.00;5033086;28;20041;-71
2022/03/22 02:22:35;;;;;;;48.28;28.38;;;;;;;6.86;100.00;103102.31;5033801;28;20084;-70
2022/03/22 02:25:02;;;;;;;52.72;28.20;;;;;;;6.79;100.00;103101.75;5033385;28;20049;-70
2022/03/22 02:27:29;;;;;;;53.08;28.48;;;;;;;6.80;99.79;103103.59;5033298;28;20381;-71
2022/03/22 02:29:55;;;;;;;48.78;28.00;;;;;;;6.81;100.00;103100.16;5031964;28;20038;-70
2022/03/22 02:32:24;;;;;;;53.17;28.25;;;;;;;6.76;100.00;103099.84;5031758;28;20037;-70
2022/03/22 02:34:49;;;;;;;57.35;30.83;;;;;;;6.75;100.00;103096.34;5032264;28;20040;-70
2022/03/22 02:37:15;;;;;;;51.83;28.13;;;;;;;6.75;100.00;103095.41;5033547;28;20021;-70
2022/03/22 02:39:40;;;;;;;55.55;30.33;;;;;;;6.75;100.00;103095.41;5032980;28;20037;-70
2022/03/22 02:42:06;;;;;;;54.67;30.25;;;;;;;6.78;100.00;103099.94;5033008;28;20516;-70
2022/03/22 02:44:31;;;;;;;58.95;31.05;;;;;;;6.80;100.00;103095.75;5032780;28;20033;-70
2022/03/22 02:46:57;;;;;;;59.05;32.05;;;;;;;6.86;100.00;103107.53;5033284;28;20107;-70
2022/03/22 02:49:22;;;;;;;59.05;31.27;;;;;;;6.85;100.00;103096.94;5032665;28;20112;-70
2022/03/22 02:51:47;;;;;;;60.67;31.30;;;;;;;6.90;100.00;103106.00;5033138;28;20073;-69
2022/03/22 02:54:13;;;;;;;54.72;31.52;;;;;;;6.90;100.00;103106.00;5029384;28;20083;-70
2022/03/22 02:56:38;;;;;;;64.35;31.92;;;;;;;6.92;100.00;103093.94;5031860;28;20055;-70
2022/03/22 02:59:03;;;;;;;59.38;32.67;;;;;;;6.84;100.00;103096.03;5032091;28;20039;-69
2022/03/22 03:01:32;;;;;;;59.63;32.65;;;;;;;6.83;100.00;103098.56;5031619;28;20029;-70
2022/03/22 03:03:58;;;;;;;58.17;31.05;;;;;;;6.86;100.00;103098.75;5032542;28;20392;-70
2022/03/22 03:06:23;;;;;;;63.40;32.30;;;;;;;6.83;100.00;103099.44;5030522;28;20473;-69
2022/03/22 03:08:50;;;;;;;63.67;33.03;;;;;;;6.79;100.00;103097.44;5031795;28;20036;-70
2022/03/22 03:11:15;;;;;;;58.00;33.88;;;;;;;6.83;100.00;103098.56;5031419;28;20124;-69
2022/03/22 03:16:24;;;;;;;64.35;33.60;;;;;;;6.80;100.00;103104.47;5023631;28;20040;-70
2022/03/22 03:18:51;;;;;;;58.03;33.10;;;;;;;6.81;100.00;103100.16;5032728;28;20025;-70
2022/03/22 03:21:17;;;;;;;61.28;34.58;;;;;;;6.83;100.00;103099.44;5033145;28;20021;-70
2022/03/22 03:23:42;;;;;;;62.88;33.45;;;;;;;6.84;100.00;103103.00;5032531;28;20080;-70
2022/03/22 03:26:07;;;;;;;63.58;34.78;;;;;;;6.84;100.00;103098.66;5032449;28;20028;-70
2022/03/22 03:28:32;;;;;;;65.43;34.55;;;;;;;6.79;100.00;103105.28;5032927;28;20033;-69
2022/03/22 03:30:58;;;;;;;61.35;33.22;;;;;;;6.79;100.00;103104.38;5032915;28;20392;-70
2022/03/22 03:33:24;;;;;;;63.60;34.03;;;;;;;6.75;100.00;103101.56;5032547;28;20021;-70
2022/03/22 03:35:49;;;;;;;63.45;34.60;;;;;;;6.77;100.00;103098.13;5032388;28;20026;-70
2022/03/22 03:38:15;;;;;;;63.25;34.13;;;;;;;6.80;100.00;103098.34;5031776;28;20021;-70
2022/03/22 03:43:24;;;;;;;63.50;33.70;;;;;;;6.82;100.00;103109.81;5027328;28;20551;-69
2022/03/22 03:48:33;;;;;;;57.30;34.30;;;;;;;6.81;100.00;103108.00;5036497;28;20052;-70
2022/03/22 03:50:58;;;;;;;62.90;34.47;;;;;;;6.80;100.00;103114.94;5035214;28;20045;-69
2022/03/22 03:53:24;;;;;;;59.38;34.10;;;;;;;6.82;100.00;103115.94;5035435;28;20021;-70
2022/03/22 03:55:49;;;;;;;59.20;33.45;;;;;;;6.88;100.00;103112.88;5036299;28;20036;-69
2022/03/22 03:58:14;;;;;;;72.45;36.47;;;;;;;6.97;100.00;103108.22;5036825;28;20061;-70
2022/03/22 04:00:40;;;;;;;66.00;36.15;;;;;;;6.98;100.00;103102.19;5035244;28;20021;-70
2022/03/22 04:03:05;;;;;;;62.83;35.17;;;;;;;6.92;100.00;103104.41;5034666;28;20017;-69
2022/03/22 04:05:30;;;;;;;69.18;36.53;;;;;;;6.97;100.00;103112.56;5035656;28;20108;-70
2022/03/22 04:07:56;;;;;;;60.63;34.38;;;;;;;7.08;100.00;103107.28;5036902;28;20029;-69
2022/03/22 04:10:21;;;;;;;62.03;34.80;;;;;;;7.08;100.00;103116.81;5036397;28;20030;-70
2022/03/22 04:12:47;;;;;;;63.53;33.85;;;;;;;7.09;100.00;103109.09;5035886;28;20136;-70
2022/03/22 04:15:12;;;;;;;67.28;35.00;;;;;;;7.09;100.00;103109.09;5034873;28;20061;-70
2022/03/22 04:17:38;;;;;;;65.28;34.80;;;;;;;7.02;100.00;103112.06;5034447;28;20465;-70
2022/03/22 04:20:04;;;;;;;61.78;33.90;;;;;;;7.01;100.00;103123.38;5034756;28;20147;-70
2022/03/22 04:22:30;;;;;;;76.10;37.03;;;;;;;6.94;100.00;103115.88;5034659;28;20040;-70
2022/03/22 04:24:55;;;;;;;61.97;34.40;;;;;;;6.90;100.00;103121.72;5034589;28;20063;-69
2022/03/22 04:32:49;;;;;;;61.95;34.70;;;;;;;6.82;100.00;103107.19;5032659;28;20158;-70
2022/03/22 04:35:20;;;;;;;73.65;35.83;;;;;;;6.86;100.00;103118.00;5036372;28;20064;-70
2022/03/22 04:37:49;;;;;;;64.95;33.92;;;;;;;6.82;100.00;103120.28;5033791;28;20053;-70
2022/03/22 04:40:16;;;;;;;60.95;33.17;;;;;;;6.79;100.00;103118.34;5035374;28;20168;-69
2022/03/22 04:42:42;;;;;;;62.22;33.92;;;;;;;6.75;100.00;103117.25;5035412;28;20013;-70
2022/03/22 04:45:08;;;;;;;62.13;35.53;;;;;;;6.73;100.00;103113.63;5036071;28;20040;-70
2022/03/22 04:47:35;;;;;;;66.53;35.53;;;;;;;6.69;100.00;103111.59;5035291;28;20380;-69
2022/03/22 04:50:01;;;;;;;64.00;35.92;;;;;;;6.71;100.00;103122.16;5035165;28;20461;-69
2022/03/22 04:57:54;;;;;;;71.35;34.85;;;;;;;6.78;100.00;103131.34;5035838;28;20045;-69
2022/03/22 05:00:20;;;;;;;64.28;35.80;;;;;;;6.79;100.00;103131.44;5033681;28;20021;-70
2022/03/22 05:02:47;;;;;;;64.75;37.28;;;;;;;6.76;100.00;103128.63;5032179;28;20022;-70
2022/03/22 05:05:12;;;;;;;76.90;36.92;;;;;;;6.76;100.00;103131.25;5035500;28;20037;-70
2022/03/22 05:07:38;;;;;;;66.65;35.75;;;;;;;6.79;100.00;103127.94;5014657;28;20492;-70
2022/03/22 05:10:03;;;;;;;66.70;37.58;;;;;;;6.85;100.00;103130.94;5034969;28;20029;-69
2022/03/22 05:12:29;;;;;;;63.72;34.78;;;;;;;6.82;100.00;103136.88;5028354;28;20034;-70
2022/03/22 05:14:54;;;;;;;58.95;35.55;;;;;;;6.85;100.00;103134.50;5034576;28;20256;-69
2022/03/22 05:17:23;;;;;;;62.80;32.90;;;;;;;6.85;100.00;103134.50;5034056;28;20112;-70
2022/03/22 05:19:50;;;;;;;67.97;36.40;;;;;;;6.81;100.00;103137.72;5034869;28;20038;-70
2022/03/22 05:22:18;;;;;;;62.30;34.40;;;;;;;6.81;100.00;103135.09;5034740;28;20067;-70
2022/03/22 05:24:45;;;;;;;67.35;35.67;;;;;;;6.83;100.00;103129.97;5033962;28;20017;-69
2022/03/22 05:27:12;;;;;;;62.28;34.65;;;;;;;6.83;100.00;103135.19;5035299;28;20544;-70
2022/03/22 05:29:37;;;;;;;61.47;34.78;;;;;;;6.83;100.00;103141.31;5033467;28;20017;-69
2022/03/22 05:32:03;;;;;;;63.70;34.88;;;;;;;6.83;100.00;103143.03;5033390;28;20040;-70
2022/03/22 05:34:29;;;;;;;68.13;35.15;;;;;;;6.85;100.00;103139.72;5029380;28;20029;-69
2022/03/22 05:36:55;;;;;;;64.50;33.85;;;;;;;6.84;100.00;103150.09;5035281;28;20036;-70
2022/03/22 05:39:20;;;;;;;62.92;34.80;;;;;;;6.82;100.00;103143.84;5033911;28;20051;-70
2022/03/22 05:41:45;;;;;;;65.38;34.47;;;;;;;6.75;100.00;103145.13;5034481;28;20025;-69
2022/03/22 05:44:12;;;;;;;58.92;33.17;;;;;;;6.71;100.00;103144.00;5034309;28;20513;-70
2022/03/22 05:46:41;;;;;;;74.70;36.10;;;;;;;6.75;100.00;103152.97;5034472;28;20113;-70
2022/03/22 05:49:08;;;;;;;64.57;34.83;;;;;;;6.71;100.00;103157.06;5034267;28;20036;-69
2022/03/22 05:51:34;;;;;;;63.95;34.53;;;;;;;6.69;100.00;103144.72;5030740;28;20049;-70
2022/03/22 05:54:00;;;;;;;70.88;36.53;;;;;;;6.66;100.00;103148.03;5032673;28;20041;-69
2022/03/22 05:56:25;;;;;;;62.38;35.03;;;;;;;6.64;100.00;103149.59;5034213;28;20427;-70
2022/03/22 05:58:50;;;;;;;68.45;36.10;;;;;;;6.66;100.00;103153.25;5033533;28;20032;-69
2022/03/22 06:01:17;;;;;;;59.10;36.05;;;;;;;6.68;100.00;103154.25;5033138;28;20437;-71
2022/03/22 06:03:42;;;;;;;62.13;36.03;;;;;;;6.71;100.00;103157.06;5016294;28;20082;-70
2022/03/22 06:06:07;;;;;;;67.57;37.10;;;;;;;6.73;100.00;103155.47;5033302;28;20030;-70
2022/03/22 06:08:34;;;;;;;67.57;36.53;;;;;;;6.77;100.00;103155.69;5033221;28;20111;-70
2022/03/22 06:10:59;;;;;;;68.20;36.17;;;;;;;6.86;100.00;103159.88;5033769;28;20400;-69
2022/03/22 06:13:24;;;;;;;61.95;34.53;;;;;;;6.89;100.00;103159.16;5032809;28;20116;-69
2022/03/22 06:15:50;;;;;;;72.75;36.60;;;;;;;6.93;100.00;103155.94;5032236;28;20048;-69
2022/03/22 06:18:16;;;;;;;60.17;34.42;;;;;;;6.97;100.00;103165.81;5032664;28;20052;-68
2022/03/22 06:20:42;;;;;;;64.00;36.75;;;;;;;7.03;100.00;103166.25;5026931;28;20132;-68
2022/03/22 06:23:10;;;;;;;61.28;35.20;;;;;;;7.03;100.00;103168.88;5033466;28;20083;-69
2022/03/22 06:25:37;;;;;;;67.70;35.35;;;;;;;7.04;100.00;103162.84;5034330;28;20396;-70
2022/03/22 06:28:04;;;;;;;59.47;34.45;;;;;;;7.06;100.00;103174.31;5031562;28;20095;-71
2022/03/22 06:30:30;;;;;;;61.22;35.90;;;;;;;7.11;100.00;103173.72;5032724;28;20033;-70
2022/03/22 06:32:59;;;;;;;63.60;37.38;;;;;;;7.17;100.00;103175.03;5032653;28;20068;-78
2022/03/22 06:35:32;;;;;;;64.20;37.10;;;;;;;7.22;100.00;103176.28;5015040;28;20107;-66
2022/03/22 06:37:59;;;;;;;63.05;35.67;;;;;;;7.27;100.00;103181.84;5031446;28;20040;-66
2022/03/22 06:40:28;;;;;;;61.05;34.72;;;;;;;7.32;100.00;103176.91;5031525;28;20026;-70
2022/03/22 06:42:55;;;;;;;65.65;34.95;;;;;;;7.32;100.00;103180.41;5028625;28;20021;-71
2022/03/22 06:45:20;;;;;;;65.10;33.80;;;;;;;7.37;100.00;103194.72;5031741;28;20033;-70
2022/03/22 06:47:46;;;;;;;56.67;34.83;;;;;;;7.38;100.00;103180.84;5024324;28;20052;-71
2022/03/22 06:50:14;;;;;;;58.38;34.05;;;;;;;7.42;100.00;103190.72;5025828;28;20052;-70
2022/03/22 06:52:39;;;;;;;61.95;34.38;;;;;;;7.49;100.00;103188.50;5044804;28;20036;-71
2022/03/22 06:55:07;;;;;;;59.67;34.20;;;;;;;7.51;100.00;103187.78;5030438;28;20049;-72
2022/03/22 06:57:33;;;;;;;56.38;33.15;;;;;;;7.57;100.00;103187.31;5030768;28;20112;-70
2022/03/22 07:00:00;;;;;;;59.10;33.80;;;;;;;7.61;100.00;103189.34;5032406;28;20129;-70
2022/03/22 07:02:25;;;;;;;61.88;34.10;;;;;;;7.67;100.00;103194.97;5029806;28;20026;-71
2022/03/22 07:04:51;;;;;;;56.72;33.10;;;;;;;7.72;100.00;103187.44;5030539;28;20519;-71
2022/03/22 07:07:17;;;;;;;57.53;32.30;;;;;;;7.75;100.00;103191.16;5029308;28;20033;-74
2022/03/22 07:09:43;;;;;;;56.20;33.40;;;;;;;7.80;100.00;103190.53;5033335;28;20033;-72
2022/03/22 07:12:10;;;;;;;56.33;32.72;;;;;;;7.85;100.00;103194.38;5027183;28;20485;-73
2022/03/22 07:14:36;;;;;;;52.00;32.60;;;;;;;7.90;100.00;103186.00;5031617;28;20037;-73
2022/03/22 07:17:01;;;;;;;55.60;32.88;;;;;;;8.00;100.00;103190.13;5030449;28;20033;-72
2022/03/22 07:19:28;;;;;;;55.00;32.00;;;;;;;8.04;100.00;103192.13;5028967;28;20029;-73
2022/03/22 07:21:57;;;;;;;54.28;31.77;;;;;;;8.09;100.00;103188.09;5031287;28;20036;-73
2022/03/22 07:24:22;;;;;;;51.55;31.92;;;;;;;8.16;100.00;103193.75;5021925;28;20116;-73
2022/03/22 07:26:48;;;;;;;58.92;32.83;;;;;;;8.21;100.00;103185.38;5025923;28;20108;-73
2022/03/22 07:29:13;;;;;;;56.25;32.83;;;;;;;8.28;100.00;103194.53;5029252;28;20128;-73
2022/03/22 07:31:41;;;;;;;51.85;31.52;;;;;;;8.32;100.00;103201.78;5026209;28;20028;-73
2022/03/22 07:34:11;;;;;;;53.25;32.47;;;;;;;8.36;100.00;103206.44;5020927;28;20037;-74
2022/03/22 07:36:40;;;;;;;57.40;32.28;;;;;;;8.41;100.00;103205.00;5027022;28;20032;-73
2022/03/22 07:39:10;;;;;;;53.20;31.50;;;;;;;8.47;100.00;103219.38;5031787;28;20080;-72
2022/03/22 07:41:36;;;;;;;58.78;31.40;;;;;;;8.55;100.00;103207.63;5032573;28;20021;-72
2022/03/22 07:44:03;;;;;;;55.95;30.48;;;;;;;8.62;100.00;103203.69;5032857;28;20025;-73
2022/03/22 07:46:29;;;;;;;50.40;31.08;;;;;;;8.68;100.00;103204.97;5029756;28;20536;-72
2022/03/22 07:48:55;;;;;;;49.75;30.23;;;;;;;8.75;100.00;103195.75;5032937;28;20064;-72
2022/03/22 07:54:05;;;;;;;50.00;30.75;;;;;;;8.93;99.36;103199.50;5031666;28;20044;-73
2022/03/22 07:56:32;;;;;;;46.72;29.80;;;;;;;9.00;99.33;103203.41;5032191;28;20333;-72
2022/03/22 07:58:58;;;;;;;46.65;28.10;;;;;;;9.11;99.24;103206.69;5030833;28;20041;-73
2022/03/22 08:01:24;;;;;;;49.90;29.33;;;;;;;9.20;98.53;103209.00;5013639;28;20029;-72
2022/03/22 08:03:50;;;;;;;44.92;28.15;;;;;;;9.28;97.78;103200.75;5026088;28;20025;-72
2022/03/22 08:06:16;;;;;;;49.55;29.30;;;;;;;9.37;97.20;103205.66;5029643;28;20025;-72
2022/03/22 08:08:44;;;;;;;46.95;27.98;;;;;;;9.49;96.39;103199.31;5031206;28;20381;-72
2022/03/22 08:11:11;;;;;;;48.75;27.77;;;;;;;9.61;95.99;103205.28;5032185;28;20064;-73
2022/03/22 08:13:38;;;;;;;43.03;27.05;;;;;;;9.70;95.45;103203.19;5029733;28;20025;-72
2022/03/22 08:16:06;;;;;;;45.25;26.80;;;;;;;9.83;94.40;103210.06;5030250;28;20087;-72
2022/03/22 08:18:33;;;;;;;43.10;27.75;;;;;;;9.92;94.46;103215.84;5026655;28;20072;-72
2022/03/22 08:20:58;;;;;;;46.22;27.08;;;;;;;10.03;94.11;103211.19;5032994;28;20030;-72
2022/03/22 08:23:23;;;;;;;43.20;27.00;;;;;;;10.10;93.19;103213.34;5031574;28;20040;-72
2022/03/22 08:25:50;;;;;;;41.40;26.48;;;;;;;10.19;92.42;103217.34;5031864;28;20025;-72
2022/03/22 08:28:17;;;;;;;39.40;25.58;;;;;;;10.29;92.09;103209.13;5030623;28;20044;-72
2022/03/22 08:30:42;;;;;;;41.92;26.20;;;;;;;10.37;91.90;103210.50;5033149;28;20036;-72
2022/03/22 08:33:09;;;;;;;41.03;25.75;;;;;;;10.47;91.99;103214.53;5036549;28;20025;-72
2022/03/22 08:35:36;;;;;;;42.30;27.27;;;;;;;10.60;91.16;103219.66;5035441;28;20021;-71
2022/03/22 08:38:03;;;;;;;39.72;25.02;;;;;;;10.67;90.49;103223.53;5036354;28;20025;-73
2022/03/22 08:40:28;;;;;;;43.97;24.90;;;;;;;10.77;89.94;103215.31;5036524;28;20032;-72
2022/03/22 08:42:56;;;;;;;36.50;24.90;;;;;;;10.87;89.66;103215.81;5034365;28;20029;-72
2022/03/22 08:45:23;;;;;;;37.35;24.88;;;;;;;11.00;89.63;103220.94;5036474;28;20434;-72
2022/03/22 08:47:50;;;;;;;42.90;25.33;;;;;;;11.09;89.75;103218.75;5028723;28;20079;-71
2022/03/22 08:50:18;;;;;;;38.25;24.70;;;;;;;11.22;89.34;103220.31;5021407;28;20052;-70
2022/03/22 08:52:45;;;;;;;45.70;25.35;;;;;;;11.30;88.59;103223.38;5028101;28;20033;-71
2022/03/22 08:55:15;;;;;;;39.47;25.17;;;;;;;11.42;88.12;103225.69;5030717;28;20026;-71
2022/03/22 08:57:41;;;;;;;41.78;25.27;;;;;;;11.61;87.51;103219.63;5032269;28;20057;-73
2022/03/22 09:00:09;;;;;;;40.25;24.95;;;;;;;11.76;86.28;103223.06;5033800;28;20079;-72
2022/03/22 09:02:38;;;;;;;33.85;25.00;;;;;;;11.85;86.15;103224.34;5033736;28;20037;-74
2022/03/22 09:07:51;;;;;;;37.60;23.08;;;;;;;12.21;85.26;103234.91;5029224;28;20132;-73
2022/03/22 09:10:18;;;;;;;35.63;23.85;;;;;;;12.36;84.68;103235.66;5034620;28;20071;-74
2022/03/22 09:12:44;;;;;;;34.85;22.50;;;;;;;12.58;85.53;103228.75;5034995;28;20543;-73
2022/03/22 09:15:11;;;;;;;37.58;22.40;;;;;;;12.77;84.05;103230.50;5029661;28;20033;-73
2022/03/22 09:17:37;;;;;;;32.95;21.85;;;;;;;12.96;82.26;103226.97;5033097;28;20033;-73
2022/03/22 09:20:03;;;;;;;32.40;20.55;;;;;;;13.18;81.36;103234.09;5032949;28;20039;-72
2022/03/22 09:22:28;;;;;;;35.78;22.15;;;;;;;13.33;81.30;103225.94;5033291;28;20414;-73
2022/03/22 09:24:53;;;;;;;38.80;21.52;;;;;;;13.52;78.50;103222.38;5029126;28;20029;-73
2022/03/22 09:27:19;;;;;;;33.28;21.67;;;;;;;13.65;80.82;103224.72;5031637;28;20021;-73
2022/03/22 09:29:45;;;;;;;34.33;22.42;;;;;;;13.84;80.27;103220.19;5034291;28;20120;-73
2022/03/22 09:32:10;;;;;;;34.30;22.08;;;;;;;14.04;80.00;103225.41;5035426;28;20433;-73
2022/03/22 09:34:36;;;;;;;32.00;20.83;;;;;;;14.30;79.73;103223.81;5033937;28;20116;-73
2022/03/22 09:37:01;;;;;;;29.40;21.70;;;;;;;14.48;76.29;103220.97;5033671;28;20036;-74
2022/03/22 09:39:27;;;;;;;28.90;21.73;;;;;;;14.66;77.46;103215.50;5035211;28;20033;-73
2022/03/22 09:41:56;;;;;;;30.35;21.13;;;;;;;14.83;77.66;103214.38;5034111;28;20091;-73
2022/03/22 09:44:21;;;;;;;34.35;21.05;;;;;;;14.83;75.83;103214.38;5034708;28;20017;-73
2022/03/22 09:46:50;;;;;;;30.42;20.70;;;;;;;15.21;72.13;103216.63;5035087;28;20458;-73
2022/03/22 09:49:18;;;;;;;32.03;20.50;;;;;;;15.42;74.31;103218.22;5034597;28;20397;-73
2022/03/22 09:51:50;;;;;;;30.13;20.60;;;;;;;15.80;73.36;103213.34;5033205;28;20041;-73
2022/03/22 09:54:22;;;;;;;32.72;20.90;;;;;;;15.95;71.70;103218.25;5034426;28;20078;-73
2022/03/22 09:56:49;;;;;;;29.08;20.50;;;;;;;16.39;71.00;103217.88;5027075;28;20052;-74
2022/03/22 09:59:17;;;;;;;27.58;20.05;;;;;;;16.67;66.66;103211.59;5025113;28;20045;-73
2022/03/22 10:01:43;;;;;;;26.95;19.48;;;;;;;16.90;68.49;103214.97;5034542;28;20029;-73
2022/03/22 10:04:14;;;;;;;29.13;21.15;;;;;;;16.83;69.29;103219.19;5034358;28;20477;-73
2022/03/22 10:06:51;;;;;;;28.27;19.65;;;;;;;17.25;64.79;103207.03;5033486;28;20091;-73
2022/03/22 10:09:28;;;;;;;36.60;19.65;;;;;;;17.48;64.51;103212.97;5034108;28;20013;-73
2022/03/22 10:11:53;;;;;;;28.23;19.00;;;;;;;17.80;60.87;103212.00;5034806;28;20025;-73
2022/03/22 10:14:19;;;;;;;21.98;16.88;;;;;;;17.94;61.05;103201.72;5033081;28;20485;-73
2022/03/22 10:16:50;;;;;;;28.90;19.02;;;;;;;17.97;61.87;103204.44;5034424;28;20465;-73
2022/03/22 10:19:24;;;;;;;27.00;19.35;;;;;;;17.83;63.07;103210.28;5033937;28;20021;-73
2022/03/22 10:21:51;;;;;;;26.17;19.05;;;;;;;18.00;62.44;103202.75;5033171;28;20025;-73
2022/03/22 10:24:17;;;;;;;27.83;18.48;;;;;;;18.24;60.61;103205.94;5033093;28;20091;-73
2022/03/22 10:26:46;;;;;;;27.98;19.00;;;;;;;18.20;58.30;103196.97;5029020;28;20485;-72
2022/03/22 10:29:13;;;;;;;28.33;17.48;;;;;;;18.41;55.20;103191.22;5034078;28;20477;-73
2022/03/22 10:31:39;;;;;;;26.02;17.77;;;;;;;18.51;56.11;103193.19;5032900;28;20346;-73
2022/03/22 10:34:06;;;;;;;35.33;19.30;;;;;;;18.60;56.32;103189.84;5034206;28;20472;-73
2022/03/22 10:36:36;;;;;;;25.17;18.10;;;;;;;18.82;55.94;103196.50;5034271;28;20044;-72
2022/03/22 10:39:06;;;;;;;30.77;18.80;;;;;;;19.10;54.05;103197.09;5032637;28;20037;-72
2022/03/22 10:41:37;;;;;;;31.50;17.73;;;;;;;19.43;51.61;103185.22;5034556;28;20056;-72
2022/03/22 10:44:13;;;;;;;31.27;18.60;;;;;;;19.36;52.13;103188.66;5034314;28;20021;-73
2022/03/22 10:46:38;;;;;;;27.33;18.15;;;;;;;19.55;53.05;103196.09;5034673;28;20021;-71
2022/03/22 10:49:11;;;;;;;30.27;18.00;;;;;;;19.86;50.28;103188.63;5033418;28;20172;-71
2022/03/22 10:51:48;;;;;;;27.20;18.10;;;;;;;20.02;53.07;103184.41;5033843;28;20042;-73
2022/03/22 10:54:16;;;;;;;31.73;19.25;;;;;;;20.01;50.06;103187.06;5032428;28;20128;-73
2022/03/22 10:56:49;;;;;;;26.50;17.80;;;;;;;20.26;49.40;103187.41;5032577;28;20485;-71
2022/03/22 10:59:17;;;;;;;27.23;18.77;;;;;;;20.52;46.41;103180.63;5032956;28;20542;-73
2022/03/22 11:01:44;;;;;;;25.55;16.83;;;;;;;20.79;46.06;103187.19;5028972;28;20052;-73
2022/03/22 11:04:11;;;;;;;25.38;17.00;;;;;;;20.66;44.14;103182.53;5033236;28;20385;-72
2022/03/22 11:06:41;;;;;;;28.90;17.90;;;;;;;20.69;44.75;103182.63;5032653;28;20378;-72
2022/03/22 11:09:06;;;;;;;22.08;16.77;;;;;;;20.56;44.90;103181.53;5033621;28;20017;-72
2022/03/22 11:11:32;;;;;;;28.73;16.23;;;;;;;20.49;47.73;103183.25;5033576;28;20033;-72
2022/03/22 11:13:59;;;;;;;29.70;17.20;;;;;;;20.75;44.92;103168.44;5033518;28;20108;-72
2022/03/22 11:16:31;;;;;;;24.70;15.98;;;;;;;20.61;44.89;103174.47;5032866;28;20471;-72
2022/03/22 11:19:00;;;;;;;26.60;16.00;;;;;;;21.01;42.69;103169.59;5032408;28;20029;-76
2022/03/22 11:21:29;;;;;;;25.65;16.23;;;;;;;21.12;43.42;103167.03;5033097;28;20033;-72
2022/03/22 11:24:10;;;;;;;27.40;16.50;;;;;;;21.33;42.38;103171.69;5032395;28;20029;-72
2022/03/22 11:26:40;;;;;;;22.20;15.30;;;;;;;21.56;41.96;103169.22;5019902;28;20449;-73
2022/03/22 11:29:07;;;;;;;22.38;15.40;;;;;;;21.66;41.55;103162.19;5031790;28;20030;-72
2022/03/22 11:31:34;;;;;;;28.45;16.70;;;;;;;21.60;40.84;103159.44;5019417;28;20112;-72
2022/03/22 11:34:09;;;;;;;27.40;14.20;;;;;;;22.08;40.38;103151.69;5030998;28;20026;-73
2022/03/22 11:36:53;;;;;;;23.05;15.93;;;;;;;22.07;41.14;103168.69;5032731;28;20064;-71
2022/03/22 11:42:15;;;;;;;22.83;15.98;;;;;;;21.89;38.75;103156.06;5033014;28;20140;-70